Time;durP1;ratioP1;P1;durP2;ratioP2;P2;SDS_P1;SDS_P2;PMS_P1;PMS_P2;Temp;Humidity;BMP_temperature;BMP_pressure;BME280_temperature;BME280_humidity;BME280_pressure;Samples;Min_cycle;Max_cycle;Signal;HPM_P1;HPM_P2
2021/09/02 00:00:28;;;;;;;12.66;3.89;;;;;;;;;;361160;148;864880;-60
2021/09/02 00:01:30;;;;;;;4.48;3.03;;;;;;;;;;358817;148;857410;-60
2021/09/02 00:02:32;;;;;;;8.73;3.26;;;;;;;;;;360190;147;859825;-61
2021/09/02 00:03:33;;;;;;;5.61;3.56;;;;;;;;;;360358;148;857213;-60
2021/09/02 00:04:35;;;;;;;6.51;3.42;;;;;;;;;;357019;147;857377;-60
2021/09/02 00:05:36;;;;;;;5.06;3.22;;;;;;;;;;355424;150;857264;-59
2021/09/02 00:06:40;;;;;;;6.98;3.60;;;;;;;;;;362263;148;857257;-60
2021/09/02 00:07:41;;;;;;;6.45;3.53;;;;;;;;;;363431;148;857631;-60
2021/09/02 00:08:43;;;;;;;6.02;3.39;;;;;;;;;;359348;147;857182;-60
2021/09/02 00:09:45;;;;;;;6.24;3.31;;;;;;;;;;360273;147;857279;-60
2021/09/02 00:10:46;;;;;;;4.29;3.05;;;;;;;;;;356986;148;857306;-60
2021/09/02 00:11:48;;;;;;;7.46;3.44;;;;;;;;;;360744;148;864968;-60
2021/09/02 00:12:49;;;;;;;5.60;3.41;;;;;;;;;;360506;147;857363;-60
2021/09/02 00:13:51;;;;;;;8.79;2.96;;;;;;;;;;354468;150;857321;-60
2021/09/02 00:14:52;;;;;;;6.49;3.25;;;;;;;;;;351151;150;857369;-60
2021/09/02 00:15:54;;;;;;;4.10;3.12;;;;;;;;;;351745;151;857379;-59
2021/09/02 00:16:56;;;;;;;5.43;3.11;;;;;;;;;;352288;150;857361;-59
2021/09/02 00:17:59;;;;;;;8.10;3.49;;;;;;;;;;351241;151;857393;-59
2021/09/02 00:19:01;;;;;;;5.37;3.39;;;;;;;;;;350212;151;856326;-60
2021/09/02 00:20:03;;;;;;;6.39;3.60;;;;;;;;;;354163;150;857258;-59
2021/09/02 00:21:05;;;;;;;4.40;2.89;;;;;;;;;;351152;151;864738;-60
2021/09/02 00:22:07;;;;;;;7.33;3.16;;;;;;;;;;353679;151;859804;-59
2021/09/02 00:23:08;;;;;;;6.59;3.14;;;;;;;;;;353761;151;859290;-60
2021/09/02 00:24:10;;;;;;;8.16;3.43;;;;;;;;;;354199;150;857284;-59
2021/09/02 00:25:11;;;;;;;7.97;3.10;;;;;;;;;;352505;151;857108;-59
2021/09/02 00:26:13;;;;;;;7.59;3.12;;;;;;;;;;354206;150;857299;-59
2021/09/02 00:27:15;;;;;;;5.76;2.97;;;;;;;;;;352817;150;857228;-59
2021/09/02 00:28:16;;;;;;;5.56;3.20;;;;;;;;;;352166;151;865650;-59
2021/09/02 00:29:18;;;;;;;7.54;3.24;;;;;;;;;;350853;151;857363;-59
2021/09/02 00:30:20;;;;;;;6.85;3.27;;;;;;;;;;349780;151;857313;-59
2021/09/02 00:31:21;;;;;;;4.46;2.89;;;;;;;;;;352911;150;857828;-59
2021/09/02 00:32:23;;;;;;;7.83;3.19;;;;;;;;;;350960;151;859096;-60
2021/09/02 00:33:25;;;;;;;4.20;3.08;;;;;;;;;;352739;151;857734;-59
2021/09/02 00:34:26;;;;;;;7.61;3.38;;;;;;;;;;353720;150;857243;-59
2021/09/02 00:35:28;;;;;;;7.59;3.19;;;;;;;;;;350226;151;867021;-59
2021/09/02 00:36:29;;;;;;;4.80;3.49;;;;;;;;;;353219;151;859243;-59
2021/09/02 00:37:31;;;;;;;9.14;3.33;;;;;;;;;;351372;151;864903;-60
2021/09/02 00:38:33;;;;;;;5.96;3.18;;;;;;;;;;353342;150;857335;-60
2021/09/02 00:39:35;;;;;;;8.87;3.10;;;;;;;;;;353100;151;857601;-59
2021/09/02 00:40:36;;;;;;;7.13;3.57;;;;;;;;;;352565;151;859107;-59
2021/09/02 00:41:38;;;;;;;5.21;3.24;;;;;;;;;;353489;150;859007;-59
2021/09/02 00:42:40;;;;;;;5.06;3.22;;;;;;;;;;352145;151;857304;-59
2021/09/02 00:43:41;;;;;;;5.92;2.79;;;;;;;;;;350921;151;857133;-59
2021/09/02 00:44:45;;;;;;;6.45;3.40;;;;;;;;;;352929;150;857301;-59
2021/09/02 00:45:46;;;;;;;8.31;3.04;;;;;;;;;;353315;150;857223;-59
2021/09/02 00:46:49;;;;;;;5.31;3.32;;;;;;;;;;350316;151;858299;-59
2021/09/02 00:47:51;;;;;;;5.11;3.33;;;;;;;;;;351063;151;857488;-60
2021/09/02 00:48:53;;;;;;;6.45;3.40;;;;;;;;;;352610;150;857413;-60
2021/09/02 00:49:54;;;;;;;11.29;2.72;;;;;;;;;;351268;151;857356;-59
2021/09/02 00:50:56;;;;;;;5.05;3.34;;;;;;;;;;352116;151;865284;-59
2021/09/02 00:51:59;;;;;;;5.71;3.12;;;;;;;;;;352254;150;857536;-59
2021/09/02 00:53:01;;;;;;;6.99;3.51;;;;;;;;;;352493;150;866679;-59
2021/09/02 00:54:02;;;;;;;4.96;3.28;;;;;;;;;;350124;151;864984;-59
2021/09/02 00:55:05;;;;;;;5.08;3.20;;;;;;;;;;350175;151;864711;-59
2021/09/02 00:56:07;;;;;;;7.98;3.36;;;;;;;;;;354727;150;857651;-59
2021/09/02 00:57:10;;;;;;;7.43;3.37;;;;;;;;;;350785;151;858637;-59
2021/09/02 00:58:12;;;;;;;6.05;3.72;;;;;;;;;;348412;151;860777;-60
2021/09/02 00:59:13;;;;;;;4.31;3.06;;;;;;;;;;351637;151;856584;-60
2021/09/02 01:00:17;;;;;;;5.46;3.28;;;;;;;;;;353093;150;859923;-60
2021/09/02 01:01:18;;;;;;;5.98;3.05;;;;;;;;;;350217;151;861340;-60
2021/09/02 01:02:20;;;;;;;6.39;3.23;;;;;;;;;;353536;150;866527;-60
2021/09/02 01:03:22;;;;;;;4.99;3.16;;;;;;;;;;352882;150;857165;-60
2021/09/02 01:04:23;;;;;;;7.05;3.52;;;;;;;;;;350563;151;866605;-60
2021/09/02 01:05:25;;;;;;;6.16;2.95;;;;;;;;;;353139;151;864896;-60
2021/09/02 01:06:27;;;;;;;5.65;3.38;;;;;;;;;;353082;150;857296;-60
2021/09/02 01:07:29;;;;;;;6.23;3.63;;;;;;;;;;352784;150;857242;-60
2021/09/02 01:08:31;;;;;;;5.75;3.26;;;;;;;;;;351170;151;857798;-60
2021/09/02 01:09:33;;;;;;;6.84;3.73;;;;;;;;;;351931;150;857334;-60
2021/09/02 01:10:35;;;;;;;6.18;3.43;;;;;;;;;;352106;150;857694;-60
2021/09/02 01:11:36;;;;;;;9.45;3.59;;;;;;;;;;352093;150;857229;-60
2021/09/02 01:12:39;;;;;;;4.93;3.41;;;;;;;;;;350146;151;858929;-60
2021/09/02 01:13:41;;;;;;;6.94;3.69;;;;;;;;;;352253;151;857920;-60
2021/09/02 01:14:43;;;;;;;7.56;3.55;;;;;;;;;;353415;150;857324;-60
2021/09/02 01:15:44;;;;;;;7.86;3.44;;;;;;;;;;351804;151;864941;-60
2021/09/02 01:16:47;;;;;;;6.14;3.33;;;;;;;;;;351264;151;860373;-60
2021/09/02 01:17:49;;;;;;;5.08;3.14;;;;;;;;;;352102;150;858950;-60
2021/09/02 01:18:51;;;;;;;4.64;3.02;;;;;;;;;;350347;150;857233;-60
2021/09/02 01:19:54;;;;;;;9.10;3.16;;;;;;;;;;350030;151;857701;-60
2021/09/02 01:20:58;;;;;;;4.84;3.46;;;;;;;;;;351217;151;865522;-60
2021/09/02 01:21:59;;;;;;;4.88;3.27;;;;;;;;;;354227;151;866142;-60
2021/09/02 01:23:01;;;;;;;6.41;3.19;;;;;;;;;;352892;151;857262;-60
2021/09/02 01:24:03;;;;;;;8.17;3.52;;;;;;;;;;352339;151;857315;-60
2021/09/02 01:25:06;;;;;;;6.00;3.34;;;;;;;;;;353108;151;857845;-60
2021/09/02 01:26:13;;;;;;;5.03;3.46;;;;;;;;;;350997;151;864838;-59
2021/09/02 01:27:15;;;;;;;5.49;3.17;;;;;;;;;;352532;151;857219;-59
2021/09/02 01:28:16;;;;;;;7.59;3.28;;;;;;;;;;352241;150;857697;-59
2021/09/02 01:29:20;;;;;;;4.77;3.24;;;;;;;;;;353637;150;857460;-59
2021/09/02 01:30:22;;;;;;;5.95;3.62;;;;;;;;;;349328;151;864856;-60
2021/09/02 01:31:23;;;;;;;6.49;3.51;;;;;;;;;;352240;151;857178;-59
2021/09/02 01:32:29;;;;;;;7.20;3.24;;;;;;;;;;353828;150;859501;-60
2021/09/02 01:33:31;;;;;;;6.43;3.37;;;;;;;;;;349539;151;859445;-60
2021/09/02 01:34:32;;;;;;;6.93;3.17;;;;;;;;;;349432;151;857645;-59
2021/09/02 01:35:34;;;;;;;6.61;3.56;;;;;;;;;;352644;151;862452;-60
2021/09/02 01:36:36;;;;;;;6.66;3.71;;;;;;;;;;353670;150;857363;-59
2021/09/02 01:37:43;;;;;;;6.76;3.24;;;;;;;;;;350033;151;865444;-59
2021/09/02 01:38:45;;;;;;;5.51;3.51;;;;;;;;;;351216;151;866352;-59
2021/09/02 01:39:47;;;;;;;6.90;3.29;;;;;;;;;;353340;150;857280;-60
2021/09/02 01:40:51;;;;;;;5.54;3.05;;;;;;;;;;352701;150;860694;-59
2021/09/02 01:41:53;;;;;;;6.09;3.48;;;;;;;;;;351002;151;857823;-60
2021/09/02 01:42:55;;;;;;;6.48;3.27;;;;;;;;;;353893;150;866592;-59
2021/09/02 01:43:56;;;;;;;5.52;3.36;;;;;;;;;;355039;150;865725;-59
2021/09/02 01:44:58;;;;;;;7.84;3.37;;;;;;;;;;353419;151;857145;-60
2021/09/02 01:45:59;;;;;;;5.46;2.88;;;;;;;;;;349505;151;856803;-59
2021/09/02 01:47:01;;;;;;;7.98;3.05;;;;;;;;;;352482;150;864903;-59
2021/09/02 01:48:03;;;;;;;7.41;3.55;;;;;;;;;;340700;155;857694;-59
2021/09/02 01:49:05;;;;;;;5.75;3.18;;;;;;;;;;341594;154;860108;-59
2021/09/02 01:50:08;;;;;;;8.64;3.39;;;;;;;;;;342391;154;858497;-59
2021/09/02 01:51:10;;;;;;;5.77;3.42;;;;;;;;;;344344;154;861155;-57
2021/09/02 01:52:12;;;;;;;5.86;3.48;;;;;;;;;;345329;154;857261;-61
2021/09/02 01:53:14;;;;;;;5.25;3.34;;;;;;;;;;344844;154;864083;-61
2021/09/02 01:54:15;;;;;;;5.16;3.17;;;;;;;;;;346648;153;856601;-61
2021/09/02 01:55:17;;;;;;;7.94;3.85;;;;;;;;;;343457;153;857202;-61
2021/09/02 01:56:20;;;;;;;6.20;3.66;;;;;;;;;;346251;154;857304;-61
2021/09/02 01:57:21;;;;;;;6.27;4.15;;;;;;;;;;345606;153;858459;-60
2021/09/02 01:58:23;;;;;;;6.26;3.80;;;;;;;;;;343536;154;864826;-61
2021/09/02 01:59:25;;;;;;;5.39;3.51;;;;;;;;;;345839;154;864779;-61
2021/09/02 02:00:26;;;;;;;5.14;3.46;;;;;;;;;;339702;154;865749;-61
2021/09/02 02:01:28;;;;;;;5.76;3.65;;;;;;;;;;340659;154;864820;-61
2021/09/02 02:02:30;;;;;;;6.51;3.76;;;;;;;;;;346155;153;857751;-59
2021/09/02 02:03:31;;;;;;;7.29;3.81;;;;;;;;;;341220;157;864844;-60
2021/09/02 02:04:33;;;;;;;8.86;3.64;;;;;;;;;;346899;153;857717;-60
2021/09/02 02:05:34;;;;;;;6.49;3.81;;;;;;;;;;344160;154;857418;-60
2021/09/02 02:06:36;;;;;;;7.52;4.21;;;;;;;;;;346600;154;857441;-60
2021/09/02 02:07:38;;;;;;;7.49;3.77;;;;;;;;;;340346;155;857200;-60
2021/09/02 02:08:40;;;;;;;6.30;3.61;;;;;;;;;;341889;154;857194;-60
2021/09/02 02:09:41;;;;;;;6.19;3.75;;;;;;;;;;344753;153;857121;-59
2021/09/02 02:10:43;;;;;;;5.30;3.71;;;;;;;;;;340538;157;857323;-60
2021/09/02 02:11:45;;;;;;;5.71;3.60;;;;;;;;;;345221;154;857272;-60
2021/09/02 02:12:46;;;;;;;6.91;3.39;;;;;;;;;;346411;153;858975;-60
2021/09/02 02:13:48;;;;;;;5.96;3.78;;;;;;;;;;347184;154;864861;-60
2021/09/02 02:14:50;;;;;;;6.05;3.56;;;;;;;;;;352085;151;857336;-60
2021/09/02 02:15:51;;;;;;;9.15;3.69;;;;;;;;;;353631;151;866616;-61
2021/09/02 02:16:55;;;;;;;7.35;3.67;;;;;;;;;;353188;150;859268;-59
2021/09/02 02:17:56;;;;;;;6.29;3.59;;;;;;;;;;351882;151;857246;-60
2021/09/02 02:18:58;;;;;;;5.51;3.54;;;;;;;;;;353113;151;866251;-60
2021/09/02 02:19:59;;;;;;;6.06;3.69;;;;;;;;;;354748;150;860206;-60
2021/09/02 02:21:01;;;;;;;6.49;3.89;;;;;;;;;;353658;151;865687;-60
2021/09/02 02:22:03;;;;;;;4.91;3.61;;;;;;;;;;353533;151;860673;-60
2021/09/02 02:23:05;;;;;;;5.47;3.49;;;;;;;;;;355649;151;858869;-60
2021/09/02 02:24:06;;;;;;;8.34;4.20;;;;;;;;;;355212;151;857765;-60
2021/09/02 02:25:09;;;;;;;8.66;3.84;;;;;;;;;;355570;151;857090;-60
2021/09/02 02:26:12;;;;;;;8.76;3.63;;;;;;;;;;355323;151;864708;-60
2021/09/02 02:27:13;;;;;;;5.62;3.35;;;;;;;;;;353379;150;857698;-60
2021/09/02 02:28:15;;;;;;;5.66;3.35;;;;;;;;;;353811;151;859041;-60
2021/09/02 02:29:16;;;;;;;6.72;2.94;;;;;;;;;;353472;150;857205;-60
2021/09/02 02:30:19;;;;;;;6.03;3.73;;;;;;;;;;354983;150;857280;-60
2021/09/02 02:31:20;;;;;;;5.72;3.49;;;;;;;;;;353724;150;860688;-59
2021/09/02 02:32:22;;;;;;;9.99;3.94;;;;;;;;;;351916;151;859603;-60
2021/09/02 02:33:24;;;;;;;7.24;3.47;;;;;;;;;;353850;151;859022;-59
2021/09/02 02:34:25;;;;;;;6.68;3.84;;;;;;;;;;352036;150;859056;-59
2021/09/02 02:35:27;;;;;;;8.31;3.56;;;;;;;;;;353388;151;857315;-59
2021/09/02 02:36:29;;;;;;;10.65;3.73;;;;;;;;;;353746;151;857594;-59
2021/09/02 02:37:31;;;;;;;6.29;3.95;;;;;;;;;;353645;151;864608;-60
2021/09/02 02:38:32;;;;;;;7.65;3.92;;;;;;;;;;354070;150;858757;-60
2021/09/02 02:39:38;;;;;;;5.36;3.63;;;;;;;;;;354637;151;858516;-59
2021/09/02 02:40:38;;;;;;;7.44;4.26;;;;;;;;;;352900;150;858092;-59
2021/09/02 02:41:40;;;;;;;7.33;3.74;;;;;;;;;;354399;150;858858;-59
2021/09/02 02:42:42;;;;;;;7.17;3.86;;;;;;;;;;352788;151;857477;-59
2021/09/02 02:43:43;;;;;;;5.18;3.48;;;;;;;;;;354436;151;857576;-59
2021/09/02 02:44:45;;;;;;;7.69;3.27;;;;;;;;;;353050;150;867571;-59
2021/09/02 02:45:46;;;;;;;7.51;3.94;;;;;;;;;;354795;150;859931;-60
2021/09/02 02:46:50;;;;;;;6.55;3.64;;;;;;;;;;353788;151;857819;-60
2021/09/02 02:47:51;;;;;;;8.73;4.70;;;;;;;;;;354673;151;859019;-60
2021/09/02 02:48:53;;;;;;;4.49;3.46;;;;;;;;;;354777;150;867279;-60
2021/09/02 02:49:54;;;;;;;6.02;3.54;;;;;;;;;;354793;151;858470;-60
2021/09/02 02:50:56;;;;;;;5.32;3.32;;;;;;;;;;355819;151;865049;-60
2021/09/02 02:51:58;;;;;;;7.22;3.94;;;;;;;;;;354101;150;857459;-60
2021/09/02 02:52:59;;;;;;;6.60;3.01;;;;;;;;;;353622;150;856998;-60
2021/09/02 02:54:01;;;;;;;7.39;3.88;;;;;;;;;;355641;151;857733;-60
2021/09/02 02:55:03;;;;;;;6.16;3.51;;;;;;;;;;353160;151;857320;-60
2021/09/02 02:56:05;;;;;;;5.54;3.47;;;;;;;;;;352868;150;857267;-60
2021/09/02 02:57:07;;;;;;;5.19;3.75;;;;;;;;;;352011;150;866028;-60
2021/09/02 02:58:09;;;;;;;7.00;3.94;;;;;;;;;;355501;151;860920;-60
2021/09/02 02:59:10;;;;;;;6.04;3.84;;;;;;;;;;353570;150;857142;-61
2021/09/02 03:00:13;;;;;;;5.01;3.81;;;;;;;;;;352410;150;860986;-60
2021/09/02 03:01:15;;;;;;;6.01;3.59;;;;;;;;;;354883;151;858650;-61
2021/09/02 03:02:16;;;;;;;8.56;3.68;;;;;;;;;;353475;151;857903;-60
2021/09/02 03:03:18;;;;;;;8.71;3.69;;;;;;;;;;353018;150;864781;-61
2021/09/02 03:04:19;;;;;;;6.43;3.34;;;;;;;;;;351115;151;857357;-60
2021/09/02 03:05:21;;;;;;;6.47;3.84;;;;;;;;;;354480;151;857209;-60
2021/09/02 03:06:23;;;;;;;6.09;3.82;;;;;;;;;;353593;150;859120;-60
2021/09/02 03:07:25;;;;;;;4.88;3.29;;;;;;;;;;354795;150;858545;-62
2021/09/02 03:08:26;;;;;;;5.55;3.76;;;;;;;;;;352815;151;857839;-61
2021/09/02 03:09:28;;;;;;;6.79;3.64;;;;;;;;;;352249;151;859587;-62
2021/09/02 03:10:31;;;;;;;6.90;3.41;;;;;;;;;;354240;150;860038;-61
2021/09/02 03:11:32;;;;;;;7.13;3.73;;;;;;;;;;354618;151;859637;-61
2021/09/02 03:12:34;;;;;;;6.49;3.67;;;;;;;;;;355193;151;864759;-61
2021/09/02 03:13:36;;;;;;;6.67;3.54;;;;;;;;;;355759;150;857898;-61
2021/09/02 03:14:37;;;;;;;6.06;3.41;;;;;;;;;;353687;150;857204;-60
2021/09/02 03:15:39;;;;;;;7.69;3.74;;;;;;;;;;349463;152;864732;-60
2021/09/02 03:16:42;;;;;;;5.06;3.43;;;;;;;;;;351348;151;858742;-60
2021/09/02 03:17:43;;;;;;;7.06;3.71;;;;;;;;;;350871;151;858898;-61
2021/09/02 03:18:45;;;;;;;8.79;3.34;;;;;;;;;;347788;153;864783;-61
2021/09/02 03:19:46;;;;;;;6.15;3.16;;;;;;;;;;349544;151;857219;-61
2021/09/02 03:20:49;;;;;;;6.24;3.89;;;;;;;;;;351456;151;857289;-60
2021/09/02 03:21:50;;;;;;;5.91;3.52;;;;;;;;;;350888;151;857294;-59
2021/09/02 03:22:52;;;;;;;6.59;3.48;;;;;;;;;;352552;152;857229;-59
2021/09/02 03:23:53;;;;;;;8.56;3.53;;;;;;;;;;349439;151;859122;-58
2021/09/02 03:24:55;;;;;;;7.18;3.89;;;;;;;;;;351205;151;864945;-60
2021/09/02 03:25:57;;;;;;;9.43;3.64;;;;;;;;;;350492;153;860368;-60
2021/09/02 03:26:59;;;;;;;7.07;3.77;;;;;;;;;;349741;153;864232;-60
2021/09/02 03:28:01;;;;;;;6.58;3.07;;;;;;;;;;351550;151;858761;-60
2021/09/02 03:29:02;;;;;;;8.32;3.67;;;;;;;;;;347470;151;857977;-60
2021/09/02 03:30:05;;;;;;;5.67;3.36;;;;;;;;;;344926;154;857246;-60
2021/09/02 03:31:06;;;;;;;8.28;3.48;;;;;;;;;;345019;152;857131;-60
2021/09/02 03:32:08;;;;;;;6.07;3.56;;;;;;;;;;344562;153;857112;-60
2021/09/02 03:33:10;;;;;;;5.15;3.13;;;;;;;;;;348370;151;857248;-59
2021/09/02 03:34:11;;;;;;;4.34;3.26;;;;;;;;;;353455;152;858925;-60
2021/09/02 03:35:13;;;;;;;6.56;3.30;;;;;;;;;;349787;151;859472;-63
2021/09/02 03:36:16;;;;;;;10.63;3.33;;;;;;;;;;351162;151;859141;-59
2021/09/02 03:37:17;;;;;;;5.11;3.26;;;;;;;;;;351075;152;859338;-59
2021/09/02 03:38:19;;;;;;;10.89;3.50;;;;;;;;;;349110;151;858001;-58
2021/09/02 03:39:20;;;;;;;5.41;3.41;;;;;;;;;;350655;151;859528;-59
2021/09/02 03:40:22;;;;;;;5.99;3.64;;;;;;;;;;349397;151;858819;-59
2021/09/02 03:41:24;;;;;;;5.62;3.53;;;;;;;;;;349351;153;858664;-59
2021/09/02 03:42:25;;;;;;;6.49;3.62;;;;;;;;;;349318;151;857738;-59
2021/09/02 03:43:27;;;;;;;6.54;3.66;;;;;;;;;;348634;151;857579;-59
2021/09/02 03:44:29;;;;;;;6.82;3.61;;;;;;;;;;350465;153;859825;-60
2021/09/02 03:45:30;;;;;;;8.51;3.71;;;;;;;;;;350375;151;856563;-59
2021/09/02 03:46:32;;;;;;;6.39;3.28;;;;;;;;;;348846;152;857347;-58
2021/09/02 03:47:34;;;;;;;8.11;3.88;;;;;;;;;;350868;151;857246;-59
2021/09/02 03:48:35;;;;;;;7.89;3.39;;;;;;;;;;347772;152;865167;-60
2021/09/02 03:49:37;;;;;;;9.65;3.28;;;;;;;;;;348534;151;864785;-60
2021/09/02 03:50:40;;;;;;;5.14;3.23;;;;;;;;;;349490;151;857144;-59
2021/09/02 03:51:42;;;;;;;6.87;3.60;;;;;;;;;;344855;153;857677;-59
2021/09/02 03:52:43;;;;;;;6.84;3.35;;;;;;;;;;350038;151;857240;-60
2021/09/02 03:53:45;;;;;;;8.97;3.64;;;;;;;;;;349652;151;858960;-58
2021/09/02 03:54:46;;;;;;;4.80;3.49;;;;;;;;;;346287;151;866150;-58
2021/09/02 03:55:48;;;;;;;6.41;3.41;;;;;;;;;;348849;153;859396;-59
2021/09/02 03:56:50;;;;;;;7.20;3.37;;;;;;;;;;349491;151;859552;-59
2021/09/02 03:57:51;;;;;;;7.83;3.54;;;;;;;;;;348568;152;857255;-59
2021/09/02 03:58:53;;;;;;;4.72;3.36;;;;;;;;;;350450;152;857419;-60
2021/09/02 03:59:54;;;;;;;7.09;3.72;;;;;;;;;;351158;152;857810;-60
2021/09/02 04:00:57;;;;;;;4.87;3.36;;;;;;;;;;349929;151;857385;-59
2021/09/02 04:01:58;;;;;;;7.29;3.42;;;;;;;;;;349360;152;856792;-61
2021/09/02 04:03:00;;;;;;;5.41;3.24;;;;;;;;;;350656;152;863765;-59
2021/09/02 04:04:01;;;;;;;7.54;3.28;;;;;;;;;;348780;151;857335;-58
2021/09/02 04:05:04;;;;;;;11.06;4.38;;;;;;;;;;350048;151;858991;-59
2021/09/02 04:06:06;;;;;;;5.13;3.54;;;;;;;;;;349875;152;860967;-58
2021/09/02 04:07:07;;;;;;;9.10;3.51;;;;;;;;;;350276;152;866480;-59
2021/09/02 04:08:09;;;;;;;5.99;3.23;;;;;;;;;;349960;152;857124;-59
2021/09/02 04:09:10;;;;;;;5.25;3.00;;;;;;;;;;344101;151;857226;-58
2021/09/02 04:10:12;;;;;;;4.99;3.21;;;;;;;;;;340707;155;857261;-58
2021/09/02 04:11:14;;;;;;;5.20;3.18;;;;;;;;;;350293;151;856778;-58
2021/09/02 04:12:16;;;;;;;6.11;3.17;;;;;;;;;;349221;152;856907;-58
2021/09/02 04:13:17;;;;;;;5.14;3.26;;;;;;;;;;350456;153;859279;-59
2021/09/02 04:14:19;;;;;;;5.24;3.27;;;;;;;;;;349398;152;866117;-58
2021/09/02 04:15:20;;;;;;;5.06;3.26;;;;;;;;;;349641;152;860841;-58
2021/09/02 04:16:23;;;;;;;5.51;3.02;;;;;;;;;;351169;151;858734;-58
2021/09/02 04:17:25;;;;;;;4.93;3.45;;;;;;;;;;356017;151;858931;-58
2021/09/02 04:18:26;;;;;;;6.64;3.36;;;;;;;;;;354223;151;858405;-59
2021/09/02 04:19:28;;;;;;;6.14;3.62;;;;;;;;;;354365;150;865242;-58
2021/09/02 04:20:31;;;;;;;6.00;3.63;;;;;;;;;;351662;151;856300;-57
2021/09/02 04:21:33;;;;;;;7.19;4.11;;;;;;;;;;354136;151;865422;-58
2021/09/02 04:22:34;;;;;;;9.38;3.63;;;;;;;;;;353223;150;857768;-58
2021/09/02 04:23:36;;;;;;;5.11;3.09;;;;;;;;;;352942;151;857202;-58
2021/09/02 04:24:38;;;;;;;6.54;3.60;;;;;;;;;;353708;151;857637;-58
2021/09/02 04:25:39;;;;;;;5.61;3.54;;;;;;;;;;354327;151;857102;-59
2021/09/02 04:26:42;;;;;;;6.34;3.59;;;;;;;;;;355228;150;857255;-58
2021/09/02 04:27:43;;;;;;;5.68;3.00;;;;;;;;;;349366;151;857244;-58
2021/09/02 04:28:45;;;;;;;8.12;3.34;;;;;;;;;;347516;151;859440;-59
2021/09/02 04:29:46;;;;;;;8.19;3.21;;;;;;;;;;355449;150;865739;-58
2021/09/02 04:30:48;;;;;;;9.31;3.45;;;;;;;;;;354444;150;858194;-58
2021/09/02 04:31:50;;;;;;;4.13;3.39;;;;;;;;;;355602;151;858971;-57
2021/09/02 04:32:51;;;;;;;6.83;3.38;;;;;;;;;;354694;151;857507;-57
2021/09/02 04:33:54;;;;;;;6.99;3.26;;;;;;;;;;349867;154;858296;-58
2021/09/02 04:34:55;;;;;;;8.45;3.42;;;;;;;;;;355978;151;857360;-57
2021/09/02 04:35:57;;;;;;;6.58;3.49;;;;;;;;;;355511;151;857524;-57
2021/09/02 04:37:00;;;;;;;7.37;3.65;;;;;;;;;;352614;151;857336;-59
2021/09/02 04:38:01;;;;;;;8.46;3.62;;;;;;;;;;353635;151;857337;-59
2021/09/02 04:39:03;;;;;;;8.88;3.22;;;;;;;;;;349602;154;857488;-59
2021/09/02 04:40:06;;;;;;;5.41;3.31;;;;;;;;;;354996;149;863870;-58
2021/09/02 04:41:09;;;;;;;6.07;3.45;;;;;;;;;;362248;147;856343;-58
2021/09/02 04:42:10;;;;;;;4.61;2.85;;;;;;;;;;360081;148;863436;-59
2021/09/02 04:43:13;;;;;;;7.10;3.39;;;;;;;;;;358509;148;856050;-58
